sensor_id;sensor_type;location;lat;lon;timestamp;P1;durP1;ratioP1;P2;durP2;ratioP2
9248;SDS011;4660;41.768;26.198;2023-05-20T00:00:27;11.87;;;9.77;;
9248;SDS011;4660;41.768;26.198;2023-05-20T00:02:52;13.03;;;9.57;;
9248;SDS011;4660;41.768;26.198;2023-05-20T00:05:18;19.33;;;9.90;;
9248;SDS011;4660;41.768;26.198;2023-05-20T00:07:43;15.27;;;10.13;;
9248;SDS011;4660;41.768;26.198;2023-05-20T00:10:09;11.27;;;9.60;;
9248;SDS011;4660;41.768;26.198;2023-05-20T00:12:36;11.97;;;9.47;;
9248;SDS011;4660;41.768;26.198;2023-05-20T00:15:02;12.07;;;9.17;;
9248;SDS011;4660;41.768;26.198;2023-05-20T00:17:29;11.73;;;9.00;;
9248;SDS011;4660;41.768;26.198;2023-05-20T00:19:54;9.73;;;8.73;;
9248;SDS011;4660;41.768;26.198;2023-05-20T00:22:20;13.47;;;9.07;;
9248;SDS011;4660;41.768;26.198;2023-05-20T00:24:46;12.13;;;9.30;;
9248;SDS011;4660;41.768;26.198;2023-05-20T00:27:11;11.47;;;8.97;;
9248;SDS011;4660;41.768;26.198;2023-05-20T00:29:36;13.23;;;9.03;;
9248;SDS011;4660;41.768;26.198;2023-05-20T00:32:02;12.80;;;9.33;;
9248;SDS011;4660;41.768;26.198;2023-05-20T00:34:28;12.83;;;9.87;;
9248;SDS011;4660;41.768;26.198;2023-05-20T00:36:53;13.73;;;9.73;;
9248;SDS011;4660;41.768;26.198;2023-05-20T00:39:19;11.20;;;10.07;;
9248;SDS011;4660;41.768;26.198;2023-05-20T00:41:44;11.87;;;10.50;;
9248;SDS011;4660;41.768;26.198;2023-05-20T00:44:10;14.73;;;10.20;;
9248;SDS011;4660;41.768;26.198;2023-05-20T00:46:35;13.00;;;10.00;;
9248;SDS011;4660;41.768;26.198;2023-05-20T00:49:01;14.70;;;9.73;;
9248;SDS011;4660;41.768;26.198;2023-05-20T00:51:27;14.60;;;8.47;;
9248;SDS011;4660;41.768;26.198;2023-05-20T00:53:53;9.80;;;8.80;;
9248;SDS011;4660;41.768;26.198;2023-05-20T00:56:19;14.80;;;10.47;;
9248;SDS011;4660;41.768;26.198;2023-05-20T00:58:46;13.50;;;11.23;;
9248;SDS011;4660;41.768;26.198;2023-05-20T01:01:12;14.90;;;10.73;;
9248;SDS011;4660;41.768;26.198;2023-05-20T01:03:39;18.10;;;10.67;;
9248;SDS011;4660;41.768;26.198;2023-05-20T01:06:05;11.27;;;9.67;;
9248;SDS011;4660;41.768;26.198;2023-05-20T01:08:30;12.83;;;10.60;;
9248;SDS011;4660;41.768;26.198;2023-05-20T01:11:08;12.67;;;10.80;;
9248;SDS011;4660;41.768;26.198;2023-05-20T01:13:42;11.23;;;10.07;;
9248;SDS011;4660;41.768;26.198;2023-05-20T01:16:11;12.97;;;9.97;;
9248;SDS011;4660;41.768;26.198;2023-05-20T01:18:39;14.90;;;10.63;;
9248;SDS011;4660;41.768;26.198;2023-05-20T01:21:07;14.37;;;10.73;;
9248;SDS011;4660;41.768;26.198;2023-05-20T01:23:40;14.40;;;11.40;;
9248;SDS011;4660;41.768;26.198;2023-05-20T01:26:06;13.97;;;10.33;;
9248;SDS011;4660;41.768;26.198;2023-05-20T01:28:35;16.93;;;11.27;;
9248;SDS011;4660;41.768;26.198;2023-05-20T01:31:04;13.13;;;10.73;;
9248;SDS011;4660;41.768;26.198;2023-05-20T01:33:34;13.00;;;10.93;;
9248;SDS011;4660;41.768;26.198;2023-05-20T01:36:01;13.70;;;10.60;;
9248;SDS011;4660;41.768;26.198;2023-05-20T01:38:27;14.27;;;11.07;;
9248;SDS011;4660;41.768;26.198;2023-05-20T01:40:54;14.53;;;10.73;;
9248;SDS011;4660;41.768;26.198;2023-05-20T01:43:22;14.67;;;11.57;;
9248;SDS011;4660;41.768;26.198;2023-05-20T01:45:49;14.60;;;11.03;;
9248;SDS011;4660;41.768;26.198;2023-05-20T01:48:15;14.13;;;10.90;;
9248;SDS011;4660;41.768;26.198;2023-05-20T01:50:41;13.10;;;10.63;;
9248;SDS011;4660;41.768;26.198;2023-05-20T01:53:06;14.97;;;10.63;;
9248;SDS011;4660;41.768;26.198;2023-05-20T01:55:34;14.10;;;10.70;;
9248;SDS011;4660;41.768;26.198;2023-05-20T01:58:00;14.20;;;11.23;;
9248;SDS011;4660;41.768;26.198;2023-05-20T02:00:26;13.53;;;10.60;;
9248;SDS011;4660;41.768;26.198;2023-05-20T02:02:51;19.30;;;11.03;;
9248;SDS011;4660;41.768;26.198;2023-05-20T02:05:17;15.40;;;11.20;;
9248;SDS011;4660;41.768;26.198;2023-05-20T02:07:42;17.13;;;11.00;;
9248;SDS011;4660;41.768;26.198;2023-05-20T02:10:08;15.23;;;11.67;;
9248;SDS011;4660;41.768;26.198;2023-05-20T02:12:34;19.47;;;11.37;;
9248;SDS011;4660;41.768;26.198;2023-05-20T02:14:59;12.87;;;11.43;;
9248;SDS011;4660;41.768;26.198;2023-05-20T02:17:25;14.73;;;11.67;;
9248;SDS011;4660;41.768;26.198;2023-05-20T02:19:51;13.77;;;11.93;;
9248;SDS011;4660;41.768;26.198;2023-05-20T02:22:16;15.37;;;12.07;;
9248;SDS011;4660;41.768;26.198;2023-05-20T02:24:43;13.50;;;11.70;;
9248;SDS011;4660;41.768;26.198;2023-05-20T02:27:08;14.63;;;11.87;;
9248;SDS011;4660;41.768;26.198;2023-05-20T02:29:34;12.87;;;11.33;;
9248;SDS011;4660;41.768;26.198;2023-05-20T02:32:01;13.33;;;11.90;;
9248;SDS011;4660;41.768;26.198;2023-05-20T02:34:26;14.03;;;12.57;;
9248;SDS011;4660;41.768;26.198;2023-05-20T02:36:52;13.40;;;11.13;;
9248;SDS011;4660;41.768;26.198;2023-05-20T02:39:18;15.03;;;10.60;;
9248;SDS011;4660;41.768;26.198;2023-05-20T02:41:44;16.33;;;11.80;;
9248;SDS011;4660;41.768;26.198;2023-05-20T02:44:09;17.60;;;11.83;;
9248;SDS011;4660;41.768;26.198;2023-05-20T02:46:35;13.33;;;11.00;;
9248;SDS011;4660;41.768;26.198;2023-05-20T02:49:00;14.80;;;11.30;;
9248;SDS011;4660;41.768;26.198;2023-05-20T02:51:26;12.67;;;10.47;;
9248;SDS011;4660;41.768;26.198;2023-05-20T02:53:51;14.60;;;12.63;;
9248;SDS011;4660;41.768;26.198;2023-05-20T02:56:17;18.03;;;13.10;;
9248;SDS011;4660;41.768;26.198;2023-05-20T02:58:45;17.20;;;12.60;;
9248;SDS011;4660;41.768;26.198;2023-05-20T03:01:11;19.20;;;12.97;;
9248;SDS011;4660;41.768;26.198;2023-05-20T03:03:37;15.40;;;12.23;;
9248;SDS011;4660;41.768;26.198;2023-05-20T03:06:05;17.27;;;12.23;;
9248;SDS011;4660;41.768;26.198;2023-05-20T03:08:30;22.90;;;12.90;;
9248;SDS011;4660;41.768;26.198;2023-05-20T03:10:58;15.40;;;12.70;;
9248;SDS011;4660;41.768;26.198;2023-05-20T03:13:23;15.23;;;12.40;;
9248;SDS011;4660;41.768;26.198;2023-05-20T03:15:49;19.77;;;12.10;;
9248;SDS011;4660;41.768;26.198;2023-05-20T03:18:14;18.33;;;11.77;;
9248;SDS011;4660;41.768;26.198;2023-05-20T03:20:40;17.67;;;12.03;;
9248;SDS011;4660;41.768;26.198;2023-05-20T03:23:06;14.40;;;12.60;;
9248;SDS011;4660;41.768;26.198;2023-05-20T03:25:32;19.13;;;13.17;;
9248;SDS011;4660;41.768;26.198;2023-05-20T03:27:58;17.70;;;13.37;;
9248;SDS011;4660;41.768;26.198;2023-05-20T03:30:24;15.90;;;12.83;;
9248;SDS011;4660;41.768;26.198;2023-05-20T03:32:50;17.93;;;12.73;;
9248;SDS011;4660;41.768;26.198;2023-05-20T03:35:16;19.60;;;12.43;;
9248;SDS011;4660;41.768;26.198;2023-05-20T03:37:41;16.33;;;13.33;;
9248;SDS011;4660;41.768;26.198;2023-05-20T03:40:07;15.90;;;13.10;;
9248;SDS011;4660;41.768;26.198;2023-05-20T03:42:37;14.23;;;12.73;;
9248;SDS011;4660;41.768;26.198;2023-05-20T03:45:03;16.83;;;12.57;;
9248;SDS011;4660;41.768;26.198;2023-05-20T03:47:29;14.57;;;12.60;;
9248;SDS011;4660;41.768;26.198;2023-05-20T03:49:55;19.03;;;12.57;;
9248;SDS011;4660;41.768;26.198;2023-05-20T03:52:20;18.93;;;12.63;;
9248;SDS011;4660;41.768;26.198;2023-05-20T03:54:46;13.40;;;11.97;;
9248;SDS011;4660;41.768;26.198;2023-05-20T03:57:12;16.13;;;12.50;;
9248;SDS011;4660;41.768;26.198;2023-05-20T03:59:38;15.57;;;11.90;;
9248;SDS011;4660;41.768;26.198;2023-05-20T04:02:04;12.73;;;11.30;;
9248;SDS011;4660;41.768;26.198;2023-05-20T04:04:30;14.57;;;11.47;;
9248;SDS011;4660;41.768;26.198;2023-05-20T04:06:56;13.23;;;11.83;;
9248;SDS011;4660;41.768;26.198;2023-05-20T04:09:22;15.50;;;12.23;;
9248;SDS011;4660;41.768;26.198;2023-05-20T04:11:47;13.10;;;11.80;;
9248;SDS011;4660;41.768;26.198;2023-05-20T04:14:13;13.20;;;11.87;;
9248;SDS011;4660;41.768;26.198;2023-05-20T04:16:39;14.33;;;12.50;;
9248;SDS011;4660;41.768;26.198;2023-05-20T04:19:05;15.63;;;12.70;;
9248;SDS011;4660;41.768;26.198;2023-05-20T04:21:31;12.80;;;11.50;;
9248;SDS011;4660;41.768;26.198;2023-05-20T04:23:56;14.57;;;11.43;;
9248;SDS011;4660;41.768;26.198;2023-05-20T04:26:22;13.83;;;11.67;;
9248;SDS011;4660;41.768;26.198;2023-05-20T04:28:47;12.77;;;11.27;;
9248;SDS011;4660;41.768;26.198;2023-05-20T04:31:13;11.83;;;10.00;;
9248;SDS011;4660;41.768;26.198;2023-05-20T04:33:39;15.13;;;10.63;;
9248;SDS011;4660;41.768;26.198;2023-05-20T04:36:11;12.43;;;10.27;;
9248;SDS011;4660;41.768;26.198;2023-05-20T04:38:40;11.93;;;10.00;;
9248;SDS011;4660;41.768;26.198;2023-05-20T04:41:06;14.37;;;10.20;;
9248;SDS011;4660;41.768;26.198;2023-05-20T04:43:32;11.93;;;10.60;;
9248;SDS011;4660;41.768;26.198;2023-05-20T04:45:57;15.77;;;10.63;;
9248;SDS011;4660;41.768;26.198;2023-05-20T04:48:25;12.40;;;10.03;;
9248;SDS011;4660;41.768;26.198;2023-05-20T04:50:51;17.80;;;11.30;;
9248;SDS011;4660;41.768;26.198;2023-05-20T04:53:18;12.37;;;10.33;;
9248;SDS011;4660;41.768;26.198;2023-05-20T04:55:46;12.20;;;10.93;;
9248;SDS011;4660;41.768;26.198;2023-05-20T04:58:12;12.43;;;9.73;;
9248;SDS011;4660;41.768;26.198;2023-05-20T05:00:42;11.17;;;9.97;;
9248;SDS011;4660;41.768;26.198;2023-05-20T05:03:08;15.40;;;10.90;;
9248;SDS011;4660;41.768;26.198;2023-05-20T05:05:36;13.10;;;9.83;;
9248;SDS011;4660;41.768;26.198;2023-05-20T05:08:03;10.70;;;9.07;;
9248;SDS011;4660;41.768;26.198;2023-05-20T05:10:30;10.77;;;9.37;;
9248;SDS011;4660;41.768;26.198;2023-05-20T05:12:56;13.93;;;8.90;;
9248;SDS011;4660;41.768;26.198;2023-05-20T05:15:21;13.03;;;9.30;;
9248;SDS011;4660;41.768;26.198;2023-05-20T05:17:47;10.13;;;8.30;;
9248;SDS011;4660;41.768;26.198;2023-05-20T05:20:13;12.13;;;8.97;;
9248;SDS011;4660;41.768;26.198;2023-05-20T05:22:38;13.03;;;9.30;;
9248;SDS011;4660;41.768;26.198;2023-05-20T05:25:08;12.83;;;9.00;;
9248;SDS011;4660;41.768;26.198;2023-05-20T05:27:34;10.43;;;9.33;;
9248;SDS011;4660;41.768;26.198;2023-05-20T05:30:00;10.40;;;8.97;;
9248;SDS011;4660;41.768;26.198;2023-05-20T05:32:27;10.73;;;8.90;;
9248;SDS011;4660;41.768;26.198;2023-05-20T05:34:52;9.93;;;8.90;;
9248;SDS011;4660;41.768;26.198;2023-05-20T05:37:18;15.77;;;8.60;;
9248;SDS011;4660;41.768;26.198;2023-05-20T05:39:44;12.70;;;9.03;;
9248;SDS011;4660;41.768;26.198;2023-05-20T05:42:09;9.30;;;7.60;;
9248;SDS011;4660;41.768;26.198;2023-05-20T05:44:35;10.00;;;9.10;;
9248;SDS011;4660;41.768;26.198;2023-05-20T05:47:00;9.80;;;8.83;;
9248;SDS011;4660;41.768;26.198;2023-05-20T05:49:27;10.97;;;9.83;;
9248;SDS011;4660;41.768;26.198;2023-05-20T05:51:52;9.37;;;8.33;;
9248;SDS011;4660;41.768;26.198;2023-05-20T05:54:18;11.17;;;9.97;;
9248;SDS011;4660;41.768;26.198;2023-05-20T05:56:46;12.37;;;9.57;;
9248;SDS011;4660;41.768;26.198;2023-05-20T05:59:12;12.10;;;9.10;;
9248;SDS011;4660;41.768;26.198;2023-05-20T06:01:40;12.33;;;9.63;;
9248;SDS011;4660;41.768;26.198;2023-05-20T06:04:06;11.60;;;9.67;;
9248;SDS011;4660;41.768;26.198;2023-05-20T06:06:32;10.80;;;9.60;;
9248;SDS011;4660;41.768;26.198;2023-05-20T06:08:57;10.40;;;9.30;;
9248;SDS011;4660;41.768;26.198;2023-05-20T06:11:23;11.93;;;9.40;;
9248;SDS011;4660;41.768;26.198;2023-05-20T06:13:49;14.60;;;9.70;;
9248;SDS011;4660;41.768;26.198;2023-05-20T06:16:15;13.17;;;9.20;;
9248;SDS011;4660;41.768;26.198;2023-05-20T06:18:41;12.93;;;9.43;;
9248;SDS011;4660;41.768;26.198;2023-05-20T06:21:06;10.07;;;9.00;;
9248;SDS011;4660;41.768;26.198;2023-05-20T06:23:32;9.17;;;8.07;;
9248;SDS011;4660;41.768;26.198;2023-05-20T06:25:58;8.27;;;7.47;;
9248;SDS011;4660;41.768;26.198;2023-05-20T06:28:25;12.27;;;7.90;;
9248;SDS011;4660;41.768;26.198;2023-05-20T06:30:51;9.00;;;7.50;;
9248;SDS011;4660;41.768;26.198;2023-05-20T06:33:18;7.68;;;6.72;;
9248;SDS011;4660;41.768;26.198;2023-05-20T06:35:44;9.13;;;6.97;;
9248;SDS011;4660;41.768;26.198;2023-05-20T06:38:10;9.73;;;8.30;;
9248;SDS011;4660;41.768;26.198;2023-05-20T06:40:35;13.37;;;7.47;;
9248;SDS011;4660;41.768;26.198;2023-05-20T06:43:01;11.70;;;7.23;;
9248;SDS011;4660;41.768;26.198;2023-05-20T06:45:27;7.95;;;7.10;;
9248;SDS011;4660;41.768;26.198;2023-05-20T06:47:53;9.85;;;7.32;;
9248;SDS011;4660;41.768;26.198;2023-05-20T06:50:18;8.55;;;7.22;;
9248;SDS011;4660;41.768;26.198;2023-05-20T06:52:44;9.48;;;7.00;;
9248;SDS011;4660;41.768;26.198;2023-05-20T06:55:10;8.65;;;7.75;;
9248;SDS011;4660;41.768;26.198;2023-05-20T06:57:36;8.57;;;7.03;;
9248;SDS011;4660;41.768;26.198;2023-05-20T07:00:02;9.77;;;7.28;;
9248;SDS011;4660;41.768;26.198;2023-05-20T07:02:31;8.70;;;7.45;;
9248;SDS011;4660;41.768;26.198;2023-05-20T07:04:57;9.57;;;7.15;;
9248;SDS011;4660;41.768;26.198;2023-05-20T07:07:23;7.03;;;6.38;;
9248;SDS011;4660;41.768;26.198;2023-05-20T07:09:49;7.68;;;6.63;;
9248;SDS011;4660;41.768;26.198;2023-05-20T07:12:14;8.40;;;6.63;;
9248;SDS011;4660;41.768;26.198;2023-05-20T07:14:41;6.22;;;5.47;;
9248;SDS011;4660;41.768;26.198;2023-05-20T07:17:06;6.40;;;5.55;;
9248;SDS011;4660;41.768;26.198;2023-05-20T07:19:32;7.47;;;5.53;;
9248;SDS011;4660;41.768;26.198;2023-05-20T07:21:58;5.95;;;5.28;;
9248;SDS011;4660;41.768;26.198;2023-05-20T07:24:24;11.88;;;5.75;;
9248;SDS011;4660;41.768;26.198;2023-05-20T07:26:50;6.53;;;5.38;;
9248;SDS011;4660;41.768;26.198;2023-05-20T07:29:15;6.78;;;5.40;;
9248;SDS011;4660;41.768;26.198;2023-05-20T07:31:41;6.43;;;5.35;;
9248;SDS011;4660;41.768;26.198;2023-05-20T07:34:07;12.15;;;5.53;;
9248;SDS011;4660;41.768;26.198;2023-05-20T07:36:33;6.25;;;5.65;;
9248;SDS011;4660;41.768;26.198;2023-05-20T07:38:58;6.28;;;5.35;;
9248;SDS011;4660;41.768;26.198;2023-05-20T07:41:24;6.18;;;5.57;;
9248;SDS011;4660;41.768;26.198;2023-05-20T07:43:50;6.22;;;5.43;;
9248;SDS011;4660;41.768;26.198;2023-05-20T07:46:16;10.32;;;5.97;;
9248;SDS011;4660;41.768;26.198;2023-05-20T07:48:41;6.68;;;5.97;;
9248;SDS011;4660;41.768;26.198;2023-05-20T07:51:07;7.47;;;5.75;;
9248;SDS011;4660;41.768;26.198;2023-05-20T07:53:33;7.15;;;6.25;;
9248;SDS011;4660;41.768;26.198;2023-05-20T07:55:58;7.13;;;5.97;;
9248;SDS011;4660;41.768;26.198;2023-05-20T07:58:26;7.30;;;5.25;;
9248;SDS011;4660;41.768;26.198;2023-05-20T08:00:51;8.43;;;5.63;;
9248;SDS011;4660;41.768;26.198;2023-05-20T08:03:17;6.72;;;5.90;;
9248;SDS011;4660;41.768;26.198;2023-05-20T08:05:43;6.68;;;5.22;;
9248;SDS011;4660;41.768;26.198;2023-05-20T08:08:09;12.60;;;5.88;;
9248;SDS011;4660;41.768;26.198;2023-05-20T08:10:35;15.45;;;5.30;;
9248;SDS011;4660;41.768;26.198;2023-05-20T08:13:01;6.80;;;4.90;;
9248;SDS011;4660;41.768;26.198;2023-05-20T08:15:27;10.93;;;5.45;;
9248;SDS011;4660;41.768;26.198;2023-05-20T08:17:52;7.15;;;5.40;;
9248;SDS011;4660;41.768;26.198;2023-05-20T08:20:18;6.65;;;5.25;;
9248;SDS011;4660;41.768;26.198;2023-05-20T08:22:44;6.68;;;5.32;;
9248;SDS011;4660;41.768;26.198;2023-05-20T08:25:10;8.65;;;5.30;;
9248;SDS011;4660;41.768;26.198;2023-05-20T08:27:35;9.20;;;5.68;;
9248;SDS011;4660;41.768;26.198;2023-05-20T08:30:02;7.32;;;5.32;;
9248;SDS011;4660;41.768;26.198;2023-05-20T08:32:32;8.18;;;5.85;;
9248;SDS011;4660;41.768;26.198;2023-05-20T08:34:57;7.70;;;5.20;;
9248;SDS011;4660;41.768;26.198;2023-05-20T08:37:26;7.43;;;5.13;;
9248;SDS011;4660;41.768;26.198;2023-05-20T08:39:52;6.45;;;5.68;;
9248;SDS011;4660;41.768;26.198;2023-05-20T08:42:21;6.78;;;5.53;;
9248;SDS011;4660;41.768;26.198;2023-05-20T08:44:49;9.68;;;5.78;;
9248;SDS011;4660;41.768;26.198;2023-05-20T08:47:19;9.10;;;4.97;;
9248;SDS011;4660;41.768;26.198;2023-05-20T08:49:46;6.50;;;4.88;;
9248;SDS011;4660;41.768;26.198;2023-05-20T08:52:15;8.00;;;5.53;;
9248;SDS011;4660;41.768;26.198;2023-05-20T08:54:47;7.43;;;5.20;;
9248;SDS011;4660;41.768;26.198;2023-05-20T08:57:13;7.80;;;4.88;;
9248;SDS011;4660;41.768;26.198;2023-05-20T08:59:41;9.30;;;5.20;;
9248;SDS011;4660;41.768;26.198;2023-05-20T09:02:07;8.02;;;5.30;;
9248;SDS011;4660;41.768;26.198;2023-05-20T09:04:35;6.50;;;5.40;;
9248;SDS011;4660;41.768;26.198;2023-05-20T09:07:01;10.05;;;5.88;;
9248;SDS011;4660;41.768;26.198;2023-05-20T09:09:26;12.70;;;5.82;;
9248;SDS011;4660;41.768;26.198;2023-05-20T09:11:52;6.57;;;5.15;;
9248;SDS011;4660;41.768;26.198;2023-05-20T09:14:17;8.30;;;5.32;;
9248;SDS011;4660;41.768;26.198;2023-05-20T09:16:42;5.57;;;4.60;;
9248;SDS011;4660;41.768;26.198;2023-05-20T09:19:09;5.85;;;5.00;;
9248;SDS011;4660;41.768;26.198;2023-05-20T09:21:34;8.95;;;5.68;;
9248;SDS011;4660;41.768;26.198;2023-05-20T09:24:01;7.07;;;5.07;;
9248;SDS011;4660;41.768;26.198;2023-05-20T09:26:27;6.85;;;5.68;;
9248;SDS011;4660;41.768;26.198;2023-05-20T09:28:57;7.38;;;5.05;;
9248;SDS011;4660;41.768;26.198;2023-05-20T09:31:26;7.03;;;5.50;;
9248;SDS011;4660;41.768;26.198;2023-05-20T09:33:53;10.75;;;6.45;;
9248;SDS011;4660;41.768;26.198;2023-05-20T09:36:19;6.68;;;5.13;;
9248;SDS011;4660;41.768;26.198;2023-05-20T09:38:47;5.95;;;5.35;;
9248;SDS011;4660;41.768;26.198;2023-05-20T09:41:17;6.47;;;5.28;;
9248;SDS011;4660;41.768;26.198;2023-05-20T09:43:46;7.43;;;5.82;;
9248;SDS011;4660;41.768;26.198;2023-05-20T09:46:12;8.98;;;5.80;;
9248;SDS011;4660;41.768;26.198;2023-05-20T09:48:39;12.35;;;6.78;;
9248;SDS011;4660;41.768;26.198;2023-05-20T09:51:05;7.55;;;5.63;;
9248;SDS011;4660;41.768;26.198;2023-05-20T09:53:31;6.47;;;5.43;;
9248;SDS011;4660;41.768;26.198;2023-05-20T09:55:57;5.63;;;5.03;;
9248;SDS011;4660;41.768;26.198;2023-05-20T09:58:23;5.72;;;5.13;;
9248;SDS011;4660;41.768;26.198;2023-05-20T10:00:49;6.68;;;5.35;;
9248;SDS011;4660;41.768;26.198;2023-05-20T10:03:16;8.68;;;4.80;;
9248;SDS011;4660;41.768;26.198;2023-05-20T10:05:47;7.32;;;5.13;;
9248;SDS011;4660;41.768;26.198;2023-05-20T10:08:31;9.02;;;5.85;;
9248;SDS011;4660;41.768;26.198;2023-05-20T10:19:24;8.00;;;5.47;;
9248;SDS011;4660;41.768;26.198;2023-05-20T10:22:02;7.65;;;5.20;;
9248;SDS011;4660;41.768;26.198;2023-05-20T10:24:34;7.22;;;5.13;;
9248;SDS011;4660;41.768;26.198;2023-05-20T10:27:03;7.25;;;5.07;;
9248;SDS011;4660;41.768;26.198;2023-05-20T10:29:44;6.93;;;5.78;;
9248;SDS011;4660;41.768;26.198;2023-05-20T10:32:27;6.13;;;5.30;;
9248;SDS011;4660;41.768;26.198;2023-05-20T10:34:57;6.00;;;5.00;;
9248;SDS011;4660;41.768;26.198;2023-05-20T10:37:29;6.20;;;5.30;;
9248;SDS011;4660;41.768;26.198;2023-05-20T10:42:38;11.57;;;6.03;;
9248;SDS011;4660;41.768;26.198;2023-05-20T10:45:05;8.23;;;5.22;;
9248;SDS011;4660;41.768;26.198;2023-05-20T10:47:31;7.28;;;5.00;;
9248;SDS011;4660;41.768;26.198;2023-05-20T10:49:57;8.00;;;4.63;;
9248;SDS011;4660;41.768;26.198;2023-05-20T10:52:23;7.07;;;4.93;;
9248;SDS011;4660;41.768;26.198;2023-05-20T10:57:17;6.13;;;5.03;;
9248;SDS011;4660;41.768;26.198;2023-05-20T10:59:43;5.57;;;4.72;;
9248;SDS011;4660;41.768;26.198;2023-05-20T11:02:09;7.43;;;4.60;;
9248;SDS011;4660;41.768;26.198;2023-05-20T11:04:36;6.13;;;4.90;;
9248;SDS011;4660;41.768;26.198;2023-05-20T11:07:03;5.68;;;4.90;;
9248;SDS011;4660;41.768;26.198;2023-05-20T11:09:29;6.78;;;5.07;;
9248;SDS011;4660;41.768;26.198;2023-05-20T11:11:56;10.05;;;5.20;;
9248;SDS011;4660;41.768;26.198;2023-05-20T11:14:21;7.78;;;5.00;;
9248;SDS011;4660;41.768;26.198;2023-05-20T11:16:50;7.07;;;5.15;;
9248;SDS011;4660;41.768;26.198;2023-05-20T11:19:18;6.97;;;5.75;;
9248;SDS011;4660;41.768;26.198;2023-05-20T11:21:44;8.77;;;4.88;;
9248;SDS011;4660;41.768;26.198;2023-05-20T11:24:10;8.73;;;5.40;;
9248;SDS011;4660;41.768;26.198;2023-05-20T11:26:39;4.97;;;4.43;;
9248;SDS011;4660;41.768;26.198;2023-05-20T11:29:05;9.25;;;5.15;;
9248;SDS011;4660;41.768;26.198;2023-05-20T11:31:31;7.70;;;5.63;;
9248;SDS011;4660;41.768;26.198;2023-05-20T11:34:00;7.60;;;5.40;;
9248;SDS011;4660;41.768;26.198;2023-05-20T11:36:27;7.07;;;5.20;;
9248;SDS011;4660;41.768;26.198;2023-05-20T11:38:53;8.90;;;5.20;;
9248;SDS011;4660;41.768;26.198;2023-05-20T11:41:26;6.00;;;5.43;;
9248;SDS011;4660;41.768;26.198;2023-05-20T11:43:58;9.95;;;5.60;;
9248;SDS011;4660;41.768;26.198;2023-05-20T11:46:24;10.38;;;5.60;;
9248;SDS011;4660;41.768;26.198;2023-05-20T11:48:54;11.40;;;6.53;;
9248;SDS011;4660;41.768;26.198;2023-05-20T11:51:28;6.38;;;4.47;;
9248;SDS011;4660;41.768;26.198;2023-05-20T11:54:02;5.22;;;4.22;;
9248;SDS011;4660;41.768;26.198;2023-05-20T11:56:31;9.93;;;4.45;;
9248;SDS011;4660;41.768;26.198;2023-05-20T12:04:11;7.68;;;4.57;;
9248;SDS011;4660;41.768;26.198;2023-05-20T12:06:41;5.38;;;4.88;;
9248;SDS011;4660;41.768;26.198;2023-05-20T12:16:57;5.03;;;4.53;;
9248;SDS011;4660;41.768;26.198;2023-05-20T12:19:32;5.13;;;4.63;;
9248;SDS011;4660;41.768;26.198;2023-05-20T12:25:16;7.15;;;4.95;;
9248;SDS011;4660;41.768;26.198;2023-05-20T12:35:38;7.20;;;4.45;;
9248;SDS011;4660;41.768;26.198;2023-05-20T12:38:27;4.35;;;3.90;;
9248;SDS011;4660;41.768;26.198;2023-05-20T12:41:19;6.40;;;4.35;;
9248;SDS011;4660;41.768;26.198;2023-05-20T12:43:48;8.18;;;4.43;;
9248;SDS011;4660;41.768;26.198;2023-05-20T12:46:14;8.15;;;4.47;;
9248;SDS011;4660;41.768;26.198;2023-05-20T12:48:40;6.53;;;4.47;;
9248;SDS011;4660;41.768;26.198;2023-05-20T12:51:06;5.35;;;4.43;;
9248;SDS011;4660;41.768;26.198;2023-05-20T12:53:38;6.25;;;3.97;;
9248;SDS011;4660;41.768;26.198;2023-05-20T13:01:42;9.55;;;4.47;;
9248;SDS011;4660;41.768;26.198;2023-05-20T13:04:16;7.82;;;4.22;;
9248;SDS011;4660;41.768;26.198;2023-05-20T13:06:48;5.35;;;4.20;;
9248;SDS011;4660;41.768;26.198;2023-05-20T13:09:19;6.95;;;4.18;;
9248;SDS011;4660;41.768;26.198;2023-05-20T13:11:46;6.97;;;3.90;;
9248;SDS011;4660;41.768;26.198;2023-05-20T13:14:21;4.68;;;3.33;;
9248;SDS011;4660;41.768;26.198;2023-05-20T13:22:01;4.38;;;3.60;;
9248;SDS011;4660;41.768;26.198;2023-05-20T13:24:32;3.55;;;3.10;;
9248;SDS011;4660;41.768;26.198;2023-05-20T13:27:01;7.10;;;3.67;;
9248;SDS011;4660;41.768;26.198;2023-05-20T13:29:30;6.20;;;3.80;;
9248;SDS011;4660;41.768;26.198;2023-05-20T13:31:55;8.52;;;3.67;;
9248;SDS011;4660;41.768;26.198;2023-05-20T13:34:24;5.22;;;4.00;;
9248;SDS011;4660;41.768;26.198;2023-05-20T13:36:50;9.30;;;4.30;;
9248;SDS011;4660;41.768;26.198;2023-05-20T13:39:15;5.40;;;4.20;;
9248;SDS011;4660;41.768;26.198;2023-05-20T13:41:42;4.57;;;4.18;;
9248;SDS011;4660;41.768;26.198;2023-05-20T13:44:08;6.72;;;3.83;;
9248;SDS011;4660;41.768;26.198;2023-05-20T13:46:34;5.38;;;4.50;;
9248;SDS011;4660;41.768;26.198;2023-05-20T13:49:00;8.88;;;4.57;;
9248;SDS011;4660;41.768;26.198;2023-05-20T13:51:27;6.45;;;4.75;;
9248;SDS011;4660;41.768;26.198;2023-05-20T13:53:53;5.38;;;4.30;;
9248;SDS011;4660;41.768;26.198;2023-05-20T13:56:19;7.50;;;4.47;;
9248;SDS011;4660;41.768;26.198;2023-05-20T13:58:48;8.00;;;4.25;;
9248;SDS011;4660;41.768;26.198;2023-05-20T14:01:14;6.63;;;4.72;;
9248;SDS011;4660;41.768;26.198;2023-05-20T14:03:40;7.70;;;4.28;;
9248;SDS011;4660;41.768;26.198;2023-05-20T14:06:07;8.13;;;4.85;;
9248;SDS011;4660;41.768;26.198;2023-05-20T14:08:33;5.53;;;4.15;;
9248;SDS011;4660;41.768;26.198;2023-05-20T14:10:59;8.00;;;4.03;;
9248;SDS011;4660;41.768;26.198;2023-05-20T14:13:25;8.20;;;4.25;;
9248;SDS011;4660;41.768;26.198;2023-05-20T14:15:51;8.13;;;3.90;;
9248;SDS011;4660;41.768;26.198;2023-05-20T14:18:19;5.60;;;4.13;;
9248;SDS011;4660;41.768;26.198;2023-05-20T14:20:45;4.60;;;3.78;;
9248;SDS011;4660;41.768;26.198;2023-05-20T14:23:15;6.95;;;3.80;;
9248;SDS011;4660;41.768;26.198;2023-05-20T14:25:41;10.68;;;4.15;;
9248;SDS011;4660;41.768;26.198;2023-05-20T14:28:07;7.25;;;4.30;;
9248;SDS011;4660;41.768;26.198;2023-05-20T14:30:36;11.55;;;4.32;;
9248;SDS011;4660;41.768;26.198;2023-05-20T14:33:01;5.13;;;4.15;;
9248;SDS011;4660;41.768;26.198;2023-05-20T14:35:27;5.10;;;3.92;;
9248;SDS011;4660;41.768;26.198;2023-05-20T14:37:52;7.70;;;3.60;;
9248;SDS011;4660;41.768;26.198;2023-05-20T14:40:18;7.80;;;3.55;;
9248;SDS011;4660;41.768;26.198;2023-05-20T14:42:43;8.05;;;5.18;;
9248;SDS011;4660;41.768;26.198;2023-05-20T14:45:10;5.82;;;4.38;;
9248;SDS011;4660;41.768;26.198;2023-05-20T14:47:37;5.57;;;3.95;;
9248;SDS011;4660;41.768;26.198;2023-05-20T14:50:05;5.95;;;4.18;;
9248;SDS011;4660;41.768;26.198;2023-05-20T14:52:32;6.65;;;4.90;;
9248;SDS011;4660;41.768;26.198;2023-05-20T14:54:59;8.95;;;5.50;;
9248;SDS011;4660;41.768;26.198;2023-05-20T14:57:25;8.45;;;6.00;;
9248;SDS011;4660;41.768;26.198;2023-05-20T14:59:55;5.65;;;5.07;;
9248;SDS011;4660;41.768;26.198;2023-05-20T15:03:03;4.68;;;3.92;;
9248;SDS011;4660;41.768;26.198;2023-05-20T15:05:30;5.25;;;4.35;;
9248;SDS011;4660;41.768;26.198;2023-05-20T15:07:56;7.15;;;5.30;;
9248;SDS011;4660;41.768;26.198;2023-05-20T15:10:22;7.90;;;4.65;;
9248;SDS011;4660;41.768;26.198;2023-05-20T15:12:48;4.68;;;4.13;;
9248;SDS011;4660;41.768;26.198;2023-05-20T15:15:15;6.05;;;4.70;;
9248;SDS011;4660;41.768;26.198;2023-05-20T15:17:42;6.00;;;4.18;;
9248;SDS011;4660;41.768;26.198;2023-05-20T15:20:40;7.90;;;4.75;;
9248;SDS011;4660;41.768;26.198;2023-05-20T15:23:05;6.13;;;4.45;;
9248;SDS011;4660;41.768;26.198;2023-05-20T15:25:31;7.80;;;4.63;;
9248;SDS011;4660;41.768;26.198;2023-05-20T15:27:57;7.47;;;5.30;;
9248;SDS011;4660;41.768;26.198;2023-05-20T15:30:23;8.13;;;4.88;;
9248;SDS011;4660;41.768;26.198;2023-05-20T15:40:45;12.85;;;4.40;;
9248;SDS011;4660;41.768;26.198;2023-05-20T15:43:46;6.07;;;4.05;;
9248;SDS011;4660;41.768;26.198;2023-05-20T15:49:52;10.00;;;4.90;;